Chathill, United Kingdom
Current Conditions -  °F | °C
As of 1:50 PM on Thursday 29 Jan 2015 (Local Time) from EGQM Reporting Station
Clear Clear  
Wind Chill: 29°   Ceiling: Unl
Heat Index: 37°   Visibility: 6mi
Dew Point: 28°   Wind: 14mph
Humidity: 70%   Direction: 250°WSW
Pressure: 28.7"   Gusts: NA
Location:  55.55°N, 1.67°W
Report Text: EGQM 291350Z AUTO 25012KT 9999 NCD 03/M02 Q0972
Loading
Personal Weather Stations






























Interactive Weather Map New forecast layout! Learn more

10-Day Weather Forecast

Advertisements
Track Severe Weather on mobile